sensor_id;sensor_type;location;lat;lon;timestamp;temperature;humidity
11965;DHT22;6042;41.326;19.826;2023-01-13T00:00:35;6.60;99.90
11965;DHT22;6042;41.326;19.826;2023-01-13T00:03:04;6.60;99.90
11965;DHT22;6042;41.326;19.826;2023-01-13T00:05:33;6.60;99.90
11965;DHT22;6042;41.326;19.826;2023-01-13T00:08:02;6.70;99.90
11965;DHT22;6042;41.326;19.826;2023-01-13T00:10:32;6.70;99.90
11965;DHT22;6042;41.326;19.826;2023-01-13T00:13:03;6.60;99.90
11965;DHT22;6042;41.326;19.826;2023-01-13T00:15:32;6.60;99.90
11965;DHT22;6042;41.326;19.826;2023-01-13T00:18:01;6.60;99.90
11965;DHT22;6042;41.326;19.826;2023-01-13T00:20:29;6.60;99.90
11965;DHT22;6042;41.326;19.826;2023-01-13T00:22:58;6.60;99.90
11965;DHT22;6042;41.326;19.826;2023-01-13T00:25:27;6.60;99.90
11965;DHT22;6042;41.326;19.826;2023-01-13T00:27:56;6.60;99.90
11965;DHT22;6042;41.326;19.826;2023-01-13T00:30:25;6.60;99.90
11965;DHT22;6042;41.326;19.826;2023-01-13T00:32:54;6.60;99.90
11965;DHT22;6042;41.326;19.826;2023-01-13T00:35:23;6.60;99.90
11965;DHT22;6042;41.326;19.826;2023-01-13T00:37:51;6.70;99.90
11965;DHT22;6042;41.326;19.826;2023-01-13T00:40:20;6.60;99.90
11965;DHT22;6042;41.326;19.826;2023-01-13T00:42:48;6.60;99.90
11965;DHT22;6042;41.326;19.826;2023-01-13T00:45:37;6.70;99.90
11965;DHT22;6042;41.326;19.826;2023-01-13T00:48:06;6.70;99.90
11965;DHT22;6042;41.326;19.826;2023-01-13T00:50:35;6.70;99.90
11965;DHT22;6042;41.326;19.826;2023-01-13T00:53:04;6.60;99.90
11965;DHT22;6042;41.326;19.826;2023-01-13T00:55:32;6.60;99.90
11965;DHT22;6042;41.326;19.826;2023-01-13T00:58:01;6.70;99.90
11965;DHT22;6042;41.326;19.826;2023-01-13T01:00:30;6.60;99.90
11965;DHT22;6042;41.326;19.826;2023-01-13T01:03:00;6.60;99.90
11965;DHT22;6042;41.326;19.826;2023-01-13T01:05:31;6.70;99.90
11965;DHT22;6042;41.326;19.826;2023-01-13T01:08:00;6.70;99.90
11965;DHT22;6042;41.326;19.826;2023-01-13T01:10:29;6.70;99.90
11965;DHT22;6042;41.326;19.826;2023-01-13T01:12:58;6.70;99.90
11965;DHT22;6042;41.326;19.826;2023-01-13T01:15:26;6.70;99.90
11965;DHT22;6042;41.326;19.826;2023-01-13T01:17:55;6.70;99.90
11965;DHT22;6042;41.326;19.826;2023-01-13T01:20:25;6.70;99.90
11965;DHT22;6042;41.326;19.826;2023-01-13T01:22:53;6.70;99.90
11965;DHT22;6042;41.326;19.826;2023-01-13T01:25:22;6.70;99.90
11965;DHT22;6042;41.326;19.826;2023-01-13T01:27:52;6.70;99.90
11965;DHT22;6042;41.326;19.826;2023-01-13T01:30:21;6.60;99.90
11965;DHT22;6042;41.326;19.826;2023-01-13T01:32:49;6.60;99.90
11965;DHT22;6042;41.326;19.826;2023-01-13T01:35:18;6.50;99.90
11965;DHT22;6042;41.326;19.826;2023-01-13T01:37:48;6.50;99.90
11965;DHT22;6042;41.326;19.826;2023-01-13T01:40:17;6.50;99.90
11965;DHT22;6042;41.326;19.826;2023-01-13T01:42:45;6.50;99.90
11965;DHT22;6042;41.326;19.826;2023-01-13T01:45:31;6.40;99.90
11965;DHT22;6042;41.326;19.826;2023-01-13T01:48:02;6.40;99.90
11965;DHT22;6042;41.326;19.826;2023-01-13T01:50:32;6.30;99.90
11965;DHT22;6042;41.326;19.826;2023-01-13T01:53:06;6.20;99.90
11965;DHT22;6042;41.326;19.826;2023-01-13T01:55:38;6.20;99.90
11965;DHT22;6042;41.326;19.826;2023-01-13T01:58:09;6.10;99.90
11965;DHT22;6042;41.326;19.826;2023-01-13T02:00:39;6.00;99.90
11965;DHT22;6042;41.326;19.826;2023-01-13T02:03:08;5.90;99.90
11965;DHT22;6042;41.326;19.826;2023-01-13T02:05:38;5.90;99.90
11965;DHT22;6042;41.326;19.826;2023-01-13T02:08:11;5.90;99.90
11965;DHT22;6042;41.326;19.826;2023-01-13T02:10:41;5.90;99.90
11965;DHT22;6042;41.326;19.826;2023-01-13T02:13:14;6.00;99.90
11965;DHT22;6042;41.326;19.826;2023-01-13T02:15:45;6.00;99.90
11965;DHT22;6042;41.326;19.826;2023-01-13T02:18:31;6.00;99.90
11965;DHT22;6042;41.326;19.826;2023-01-13T02:27:48;6.00;99.90
11965;DHT22;6042;41.326;19.826;2023-01-13T02:30:35;6.10;99.90
11965;DHT22;6042;41.326;19.826;2023-01-13T02:33:52;6.10;99.90
11965;DHT22;6042;41.326;19.826;2023-01-13T02:36:30;6.10;99.90
11965;DHT22;6042;41.326;19.826;2023-01-13T02:39:03;6.20;99.90
11965;DHT22;6042;41.326;19.826;2023-01-13T02:41:37;6.20;99.90
11965;DHT22;6042;41.326;19.826;2023-01-13T02:44:26;6.10;99.90
11965;DHT22;6042;41.326;19.826;2023-01-13T02:47:01;6.10;99.90
11965;DHT22;6042;41.326;19.826;2023-01-13T02:49:34;6.10;99.90
11965;DHT22;6042;41.326;19.826;2023-01-13T02:52:09;6.00;99.90
11965;DHT22;6042;41.326;19.826;2023-01-13T02:54:41;6.10;99.90
11965;DHT22;6042;41.326;19.826;2023-01-13T02:57:12;6.00;99.90
11965;DHT22;6042;41.326;19.826;2023-01-13T02:59:43;6.00;99.90
11965;DHT22;6042;41.326;19.826;2023-01-13T03:02:17;6.00;99.90
11965;DHT22;6042;41.326;19.826;2023-01-13T03:04:49;5.90;99.90
11965;DHT22;6042;41.326;19.826;2023-01-13T03:07:49;5.90;99.90
11965;DHT22;6042;41.326;19.826;2023-01-13T03:10:31;5.90;99.90
11965;DHT22;6042;41.326;19.826;2023-01-13T03:13:20;5.90;99.90
11965;DHT22;6042;41.326;19.826;2023-01-13T03:15:55;6.00;99.90
11965;DHT22;6042;41.326;19.826;2023-01-13T03:18:35;6.00;99.90
11965;DHT22;6042;41.326;19.826;2023-01-13T03:21:14;6.00;99.90
11965;DHT22;6042;41.326;19.826;2023-01-13T03:23:50;6.10;99.90
11965;DHT22;6042;41.326;19.826;2023-01-13T03:26:25;6.00;99.90
11965;DHT22;6042;41.326;19.826;2023-01-13T03:29:05;6.00;99.90
11965;DHT22;6042;41.326;19.826;2023-01-13T03:31:40;6.00;99.90
11965;DHT22;6042;41.326;19.826;2023-01-13T03:34:14;6.00;99.90
11965;DHT22;6042;41.326;19.826;2023-01-13T03:36:45;5.90;99.90
11965;DHT22;6042;41.326;19.826;2023-01-13T03:39:21;5.90;99.90
11965;DHT22;6042;41.326;19.826;2023-01-13T03:41:55;5.90;99.90
11965;DHT22;6042;41.326;19.826;2023-01-13T03:44:30;5.90;99.90
11965;DHT22;6042;41.326;19.826;2023-01-13T03:47:06;5.80;99.90
11965;DHT22;6042;41.326;19.826;2023-01-13T03:49:43;5.80;99.90
11965;DHT22;6042;41.326;19.826;2023-01-13T03:52:17;5.70;99.90
11965;DHT22;6042;41.326;19.826;2023-01-13T03:54:50;5.60;99.90
11965;DHT22;6042;41.326;19.826;2023-01-13T03:57:25;5.60;99.90
11965;DHT22;6042;41.326;19.826;2023-01-13T03:59:58;5.70;99.90
11965;DHT22;6042;41.326;19.826;2023-01-13T04:02:44;5.80;99.90
11965;DHT22;6042;41.326;19.826;2023-01-13T04:05:17;5.90;99.90
11965;DHT22;6042;41.326;19.826;2023-01-13T04:07:50;5.90;99.90
11965;DHT22;6042;41.326;19.826;2023-01-13T04:10:23;5.80;99.90
11965;DHT22;6042;41.326;19.826;2023-01-13T04:12:58;5.80;99.90
11965;DHT22;6042;41.326;19.826;2023-01-13T04:15:30;5.80;99.90
11965;DHT22;6042;41.326;19.826;2023-01-13T04:18:12;5.70;99.90
11965;DHT22;6042;41.326;19.826;2023-01-13T04:20:44;5.60;99.90
11965;DHT22;6042;41.326;19.826;2023-01-13T04:23:14;5.60;99.90
11965;DHT22;6042;41.326;19.826;2023-01-13T04:25:43;5.50;99.90
11965;DHT22;6042;41.326;19.826;2023-01-13T04:28:13;5.40;99.90
11965;DHT22;6042;41.326;19.826;2023-01-13T04:30:42;5.30;99.90
11965;DHT22;6042;41.326;19.826;2023-01-13T04:33:12;5.20;99.90
11965;DHT22;6042;41.326;19.826;2023-01-13T04:35:43;5.20;99.90
11965;DHT22;6042;41.326;19.826;2023-01-13T04:38:13;5.20;99.90
11965;DHT22;6042;41.326;19.826;2023-01-13T04:40:42;5.20;99.90
11965;DHT22;6042;41.326;19.826;2023-01-13T04:43:11;5.20;99.90
11965;DHT22;6042;41.326;19.826;2023-01-13T04:45:42;5.20;99.90
11965;DHT22;6042;41.326;19.826;2023-01-13T04:48:11;5.20;99.90
11965;DHT22;6042;41.326;19.826;2023-01-13T04:50:41;5.20;99.90
11965;DHT22;6042;41.326;19.826;2023-01-13T04:53:10;5.10;99.90
11965;DHT22;6042;41.326;19.826;2023-01-13T04:55:38;5.10;99.90
11965;DHT22;6042;41.326;19.826;2023-01-13T04:58:09;5.00;99.90
11965;DHT22;6042;41.326;19.826;2023-01-13T05:00:39;5.00;99.90
11965;DHT22;6042;41.326;19.826;2023-01-13T05:03:07;5.10;99.90
11965;DHT22;6042;41.326;19.826;2023-01-13T05:05:36;5.10;99.90
11965;DHT22;6042;41.326;19.826;2023-01-13T05:08:06;5.10;99.90
11965;DHT22;6042;41.326;19.826;2023-01-13T05:10:36;5.10;99.90
11965;DHT22;6042;41.326;19.826;2023-01-13T05:13:04;5.10;99.90
11965;DHT22;6042;41.326;19.826;2023-01-13T05:15:50;5.10;99.90
11965;DHT22;6042;41.326;19.826;2023-01-13T05:18:45;5.10;99.90
11965;DHT22;6042;41.326;19.826;2023-01-13T05:21:13;5.20;99.90
11965;DHT22;6042;41.326;19.826;2023-01-13T05:23:57;5.20;99.90
11965;DHT22;6042;41.326;19.826;2023-01-13T05:26:47;5.30;99.90
11965;DHT22;6042;41.326;19.826;2023-01-13T05:29:15;5.30;99.90
11965;DHT22;6042;41.326;19.826;2023-01-13T05:31:44;5.40;99.90
11965;DHT22;6042;41.326;19.826;2023-01-13T05:34:12;5.50;99.90
11965;DHT22;6042;41.326;19.826;2023-01-13T05:36:41;5.50;99.90
11965;DHT22;6042;41.326;19.826;2023-01-13T05:39:11;5.50;99.90
11965;DHT22;6042;41.326;19.826;2023-01-13T05:41:40;5.60;99.90
11965;DHT22;6042;41.326;19.826;2023-01-13T05:44:26;5.70;99.90
11965;DHT22;6042;41.326;19.826;2023-01-13T05:46:54;5.70;99.90
11965;DHT22;6042;41.326;19.826;2023-01-13T05:49:23;5.70;99.90
11965;DHT22;6042;41.326;19.826;2023-01-13T05:51:52;5.80;99.90
11965;DHT22;6042;41.326;19.826;2023-01-13T05:54:22;5.80;99.90
11965;DHT22;6042;41.326;19.826;2023-01-13T05:56:50;5.80;99.90
11965;DHT22;6042;41.326;19.826;2023-01-13T05:59:19;5.80;99.90
11965;DHT22;6042;41.326;19.826;2023-01-13T06:01:47;5.80;99.90
11965;DHT22;6042;41.326;19.826;2023-01-13T06:04:16;5.90;99.90
11965;DHT22;6042;41.326;19.826;2023-01-13T06:06:45;5.90;99.90
11965;DHT22;6042;41.326;19.826;2023-01-13T06:09:15;6.00;99.90
11965;DHT22;6042;41.326;19.826;2023-01-13T06:11:45;6.00;99.90
11965;DHT22;6042;41.326;19.826;2023-01-13T06:14:15;5.90;99.90
11965;DHT22;6042;41.326;19.826;2023-01-13T06:16:43;5.90;99.90
11965;DHT22;6042;41.326;19.826;2023-01-13T06:19:12;6.00;99.90
11965;DHT22;6042;41.326;19.826;2023-01-13T06:21:41;6.00;99.90
11965;DHT22;6042;41.326;19.826;2023-01-13T06:24:11;5.90;99.90
11965;DHT22;6042;41.326;19.826;2023-01-13T06:26:39;5.90;99.90
11965;DHT22;6042;41.326;19.826;2023-01-13T06:29:10;6.00;99.90
11965;DHT22;6042;41.326;19.826;2023-01-13T06:31:41;6.00;99.90
11965;DHT22;6042;41.326;19.826;2023-01-13T06:34:11;5.90;99.90
11965;DHT22;6042;41.326;19.826;2023-01-13T06:36:45;5.90;99.90
11965;DHT22;6042;41.326;19.826;2023-01-13T06:39:18;5.90;99.90
11965;DHT22;6042;41.326;19.826;2023-01-13T06:41:49;5.90;99.90
11965;DHT22;6042;41.326;19.826;2023-01-13T06:44:38;5.90;99.90
11965;DHT22;6042;41.326;19.826;2023-01-13T06:47:07;5.90;99.90
11965;DHT22;6042;41.326;19.826;2023-01-13T06:49:35;5.90;99.90
11965;DHT22;6042;41.326;19.826;2023-01-13T06:52:04;5.90;99.90
11965;DHT22;6042;41.326;19.826;2023-01-13T06:54:33;5.80;99.90
11965;DHT22;6042;41.326;19.826;2023-01-13T06:57:02;5.80;99.90
11965;DHT22;6042;41.326;19.826;2023-01-13T06:59:31;5.80;99.90
11965;DHT22;6042;41.326;19.826;2023-01-13T07:02:03;5.80;99.90
11965;DHT22;6042;41.326;19.826;2023-01-13T07:04:31;5.70;99.90
11965;DHT22;6042;41.326;19.826;2023-01-13T07:07:00;5.60;99.90
11965;DHT22;6042;41.326;19.826;2023-01-13T07:09:28;5.70;99.90
11965;DHT22;6042;41.326;19.826;2023-01-13T07:11:57;5.80;99.90
11965;DHT22;6042;41.326;19.826;2023-01-13T07:14:25;5.80;99.90
11965;DHT22;6042;41.326;19.826;2023-01-13T07:17:13;5.90;99.90
11965;DHT22;6042;41.326;19.826;2023-01-13T07:19:41;5.90;99.90
11965;DHT22;6042;41.326;19.826;2023-01-13T07:22:12;6.00;99.90
11965;DHT22;6042;41.326;19.826;2023-01-13T07:24:41;6.00;99.90
11965;DHT22;6042;41.326;19.826;2023-01-13T07:27:09;6.10;99.90
11965;DHT22;6042;41.326;19.826;2023-01-13T07:29:38;6.30;99.90
11965;DHT22;6042;41.326;19.826;2023-01-13T07:32:06;6.40;99.90
11965;DHT22;6042;41.326;19.826;2023-01-13T07:34:36;6.50;99.90
11965;DHT22;6042;41.326;19.826;2023-01-13T07:37:05;6.60;99.90
11965;DHT22;6042;41.326;19.826;2023-01-13T07:39:34;6.70;99.90
11965;DHT22;6042;41.326;19.826;2023-01-13T07:42:03;6.90;99.90
11965;DHT22;6042;41.326;19.826;2023-01-13T07:44:49;7.00;99.90
11965;DHT22;6042;41.326;19.826;2023-01-13T07:47:18;7.10;99.90
11965;DHT22;6042;41.326;19.826;2023-01-13T07:49:50;7.10;99.90
11965;DHT22;6042;41.326;19.826;2023-01-13T07:52:19;7.30;99.90
11965;DHT22;6042;41.326;19.826;2023-01-13T07:54:47;7.50;99.90
11965;DHT22;6042;41.326;19.826;2023-01-13T07:57:17;7.70;99.90
11965;DHT22;6042;41.326;19.826;2023-01-13T07:59:45;7.70;99.90
11965;DHT22;6042;41.326;19.826;2023-01-13T08:02:14;7.70;99.90
11965;DHT22;6042;41.326;19.826;2023-01-13T08:04:43;7.80;99.90
11965;DHT22;6042;41.326;19.826;2023-01-13T08:07:12;7.90;99.90
11965;DHT22;6042;41.326;19.826;2023-01-13T08:09:41;8.10;99.90
11965;DHT22;6042;41.326;19.826;2023-01-13T08:12:10;8.20;99.90
11965;DHT22;6042;41.326;19.826;2023-01-13T08:14:57;8.40;99.90
11965;DHT22;6042;41.326;19.826;2023-01-13T08:17:25;8.40;99.90
11965;DHT22;6042;41.326;19.826;2023-01-13T08:19:54;8.50;99.90
11965;DHT22;6042;41.326;19.826;2023-01-13T08:22:24;8.70;99.90
11965;DHT22;6042;41.326;19.826;2023-01-13T08:24:53;8.80;99.90
11965;DHT22;6042;41.326;19.826;2023-01-13T08:27:21;8.90;99.90
11965;DHT22;6042;41.326;19.826;2023-01-13T08:29:50;9.00;99.90
11965;DHT22;6042;41.326;19.826;2023-01-13T08:32:19;9.10;99.90
11965;DHT22;6042;41.326;19.826;2023-01-13T08:34:47;9.20;99.90
11965;DHT22;6042;41.326;19.826;2023-01-13T08:37:16;9.30;99.90
11965;DHT22;6042;41.326;19.826;2023-01-13T08:39:46;9.40;99.90
11965;DHT22;6042;41.326;19.826;2023-01-13T08:42:14;9.50;99.90
11965;DHT22;6042;41.326;19.826;2023-01-13T08:44:43;9.60;99.90
11965;DHT22;6042;41.326;19.826;2023-01-13T08:47:12;9.70;99.90
11965;DHT22;6042;41.326;19.826;2023-01-13T08:49:40;9.80;99.90
11965;DHT22;6042;41.326;19.826;2023-01-13T08:52:09;9.80;99.90
11965;DHT22;6042;41.326;19.826;2023-01-13T08:54:38;9.80;99.90
11965;DHT22;6042;41.326;19.826;2023-01-13T08:57:08;9.80;99.90
11965;DHT22;6042;41.326;19.826;2023-01-13T08:59:37;10.00;99.90
11965;DHT22;6042;41.326;19.826;2023-01-13T09:02:12;10.10;99.90
11965;DHT22;6042;41.326;19.826;2023-01-13T09:04:41;10.10;99.90
11965;DHT22;6042;41.326;19.826;2023-01-13T09:07:10;10.10;99.90
11965;DHT22;6042;41.326;19.826;2023-01-13T09:09:39;10.10;99.90
11965;DHT22;6042;41.326;19.826;2023-01-13T09:12:11;10.10;99.90
11965;DHT22;6042;41.326;19.826;2023-01-13T09:14:57;10.20;99.90
11965;DHT22;6042;41.326;19.826;2023-01-13T09:17:26;10.20;99.90
11965;DHT22;6042;41.326;19.826;2023-01-13T09:19:55;10.20;99.90
11965;DHT22;6042;41.326;19.826;2023-01-13T09:22:23;10.20;99.90
11965;DHT22;6042;41.326;19.826;2023-01-13T09:24:53;10.20;99.90
11965;DHT22;6042;41.326;19.826;2023-01-13T09:27:23;10.30;99.90
11965;DHT22;6042;41.326;19.826;2023-01-13T09:29:52;10.30;99.90
11965;DHT22;6042;41.326;19.826;2023-01-13T09:32:20;10.30;99.90
11965;DHT22;6042;41.326;19.826;2023-01-13T09:34:49;10.30;99.90
11965;DHT22;6042;41.326;19.826;2023-01-13T09:37:31;10.40;99.90
11965;DHT22;6042;41.326;19.826;2023-01-13T09:40:00;10.60;99.90
11965;DHT22;6042;41.326;19.826;2023-01-13T09:42:36;10.60;99.90
11965;DHT22;6042;41.326;19.826;2023-01-13T09:45:26;10.70;99.90
11965;DHT22;6042;41.326;19.826;2023-01-13T09:48:00;10.70;99.90
11965;DHT22;6042;41.326;19.826;2023-01-13T09:50:47;10.70;99.90
11965;DHT22;6042;41.326;19.826;2023-01-13T09:53:21;10.70;99.90
11965;DHT22;6042;41.326;19.826;2023-01-13T09:55:50;10.70;99.90
11965;DHT22;6042;41.326;19.826;2023-01-13T09:58:20;10.70;99.90
11965;DHT22;6042;41.326;19.826;2023-01-13T10:01:01;10.70;99.90
11965;DHT22;6042;41.326;19.826;2023-01-13T10:03:34;10.70;99.90
11965;DHT22;6042;41.326;19.826;2023-01-13T10:06:11;10.80;99.90
11965;DHT22;6042;41.326;19.826;2023-01-13T10:08:42;10.90;99.90
11965;DHT22;6042;41.326;19.826;2023-01-13T10:11:14;10.90;99.90
11965;DHT22;6042;41.326;19.826;2023-01-13T10:14:08;11.10;99.90
11965;DHT22;6042;41.326;19.826;2023-01-13T10:16:42;11.30;99.90
11965;DHT22;6042;41.326;19.826;2023-01-13T10:19:17;11.40;99.90
11965;DHT22;6042;41.326;19.826;2023-01-13T10:22:19;11.60;99.90
11965;DHT22;6042;41.326;19.826;2023-01-13T10:25:07;11.70;99.90
11965;DHT22;6042;41.326;19.826;2023-01-13T10:27:45;11.90;99.90
11965;DHT22;6042;41.326;19.826;2023-01-13T10:30:20;12.00;99.90
11965;DHT22;6042;41.326;19.826;2023-01-13T10:32:52;12.20;99.90
11965;DHT22;6042;41.326;19.826;2023-01-13T10:35:48;12.30;99.60
11965;DHT22;6042;41.326;19.826;2023-01-13T10:38:20;12.30;98.60
11965;DHT22;6042;41.326;19.826;2023-01-13T10:40:51;12.30;98.20
11965;DHT22;6042;41.326;19.826;2023-01-13T10:43:21;12.40;98.00
11965;DHT22;6042;41.326;19.826;2023-01-13T10:45:57;12.60;98.70
11965;DHT22;6042;41.326;19.826;2023-01-13T10:48:40;12.60;98.50
11965;DHT22;6042;41.326;19.826;2023-01-13T10:51:21;12.70;98.50
11965;DHT22;6042;41.326;19.826;2023-01-13T10:53:53;12.80;98.40
11965;DHT22;6042;41.326;19.826;2023-01-13T10:56:23;13.00;98.30
11965;DHT22;6042;41.326;19.826;2023-01-13T10:59:10;13.00;97.70
11965;DHT22;6042;41.326;19.826;2023-01-13T11:01:50;13.00;97.80
11965;DHT22;6042;41.326;19.826;2023-01-13T11:04:27;13.30;97.40
11965;DHT22;6042;41.326;19.826;2023-01-13T11:06:57;13.40;97.10
11965;DHT22;6042;41.326;19.826;2023-01-13T11:09:26;13.60;96.20
11965;DHT22;6042;41.326;19.826;2023-01-13T11:11:58;13.60;96.10
11965;DHT22;6042;41.326;19.826;2023-01-13T11:14:35;13.60;96.00
11965;DHT22;6042;41.326;19.826;2023-01-13T11:17:26;13.60;96.00
11965;DHT22;6042;41.326;19.826;2023-01-13T11:20:02;13.70;95.60
11965;DHT22;6042;41.326;19.826;2023-01-13T11:22:34;13.70;95.80
11965;DHT22;6042;41.326;19.826;2023-01-13T11:25:08;13.80;95.70
11965;DHT22;6042;41.326;19.826;2023-01-13T11:27:42;13.80;95.70
11965;DHT22;6042;41.326;19.826;2023-01-13T11:30:27;13.80;95.30
11965;DHT22;6042;41.326;19.826;2023-01-13T11:36:06;13.70;95.40
11965;DHT22;6042;41.326;19.826;2023-01-13T11:38:43;13.80;95.10
11965;DHT22;6042;41.326;19.826;2023-01-13T11:41:22;14.00;95.10
11965;DHT22;6042;41.326;19.826;2023-01-13T11:43:55;14.20;95.00
11965;DHT22;6042;41.326;19.826;2023-01-13T11:46:27;14.50;95.00
11965;DHT22;6042;41.326;19.826;2023-01-13T11:48:58;14.50;94.40
11965;DHT22;6042;41.326;19.826;2023-01-13T11:51:34;14.40;94.60
11965;DHT22;6042;41.326;19.826;2023-01-13T11:54:33;14.30;94.60
11965;DHT22;6042;41.326;19.826;2023-01-13T11:57:37;14.40;94.40
11965;DHT22;6042;41.326;19.826;2023-01-13T12:00:35;14.50;94.40
11965;DHT22;6042;41.326;19.826;2023-01-13T12:03:21;14.30;94.20
11965;DHT22;6042;41.326;19.826;2023-01-13T12:09:25;14.80;93.90
11965;DHT22;6042;41.326;19.826;2023-01-13T12:12:17;15.40;93.60
11965;DHT22;6042;41.326;19.826;2023-01-13T12:15:04;15.90;93.00
11965;DHT22;6042;41.326;19.826;2023-01-13T12:17:41;16.20;92.80
11965;DHT22;6042;41.326;19.826;2023-01-13T12:20:21;16.90;92.00
11965;DHT22;6042;41.326;19.826;2023-01-13T12:22:53;17.30;91.40
11965;DHT22;6042;41.326;19.826;2023-01-13T12:25:29;18.40;90.10
11965;DHT22;6042;41.326;19.826;2023-01-13T12:28:02;19.20;86.80
11965;DHT22;6042;41.326;19.826;2023-01-13T12:30:38;20.10;83.80
11965;DHT22;6042;41.326;19.826;2023-01-13T12:33:14;21.40;78.60
11965;DHT22;6042;41.326;19.826;2023-01-13T12:35:51;21.70;76.60
11965;DHT22;6042;41.326;19.826;2023-01-13T12:38:29;22.20;74.10
11965;DHT22;6042;41.326;19.826;2023-01-13T12:41:09;21.40;73.40
11965;DHT22;6042;41.326;19.826;2023-01-13T12:43:46;21.30;75.00
11965;DHT22;6042;41.326;19.826;2023-01-13T12:46:47;21.50;72.70
11965;DHT22;6042;41.326;19.826;2023-01-13T12:49:22;20.80;74.40
11965;DHT22;6042;41.326;19.826;2023-01-13T12:52:12;20.70;73.60
11965;DHT22;6042;41.326;19.826;2023-01-13T12:55:05;22.00;71.80
11965;DHT22;6042;41.326;19.826;2023-01-13T12:57:37;23.40;68.30
11965;DHT22;6042;41.326;19.826;2023-01-13T13:00:16;23.80;65.70
11965;DHT22;6042;41.326;19.826;2023-01-13T13:05:54;25.20;61.40
11965;DHT22;6042;41.326;19.826;2023-01-13T13:08:42;24.00;62.00
11965;DHT22;6042;41.326;19.826;2023-01-13T13:11:21;22.00;65.50
11965;DHT22;6042;41.326;19.826;2023-01-13T13:14:12;19.90;70.90
11965;DHT22;6042;41.326;19.826;2023-01-13T13:16:50;18.20;76.30
11965;DHT22;6042;41.326;19.826;2023-01-13T13:19:44;17.10;80.30
11965;DHT22;6042;41.326;19.826;2023-01-13T13:25:20;15.30;87.90
11965;DHT22;6042;41.326;19.826;2023-01-13T13:31:13;14.30;91.90
11965;DHT22;6042;41.326;19.826;2023-01-13T13:33:55;14.00;92.80
11965;DHT22;6042;41.326;19.826;2023-01-13T13:36:49;13.80;93.60
11965;DHT22;6042;41.326;19.826;2023-01-13T13:39:23;13.60;94.40
11965;DHT22;6042;41.326;19.826;2023-01-13T13:42:12;13.50;95.00
11965;DHT22;6042;41.326;19.826;2023-01-13T13:45:15;13.40;95.70
11965;DHT22;6042;41.326;19.826;2023-01-13T13:48:21;13.40;95.90
11965;DHT22;6042;41.326;19.826;2023-01-13T13:50:52;13.30;96.20
11965;DHT22;6042;41.326;19.826;2023-01-13T13:53:27;13.40;96.30
11965;DHT22;6042;41.326;19.826;2023-01-13T13:55:59;13.30;96.60
11965;DHT22;6042;41.326;19.826;2023-01-13T13:58:30;13.30;96.80
11965;DHT22;6042;41.326;19.826;2023-01-13T14:01:04;13.10;97.00
11965;DHT22;6042;41.326;19.826;2023-01-13T14:03:35;13.10;96.80
11965;DHT22;6042;41.326;19.826;2023-01-13T14:06:17;13.10;97.00
11965;DHT22;6042;41.326;19.826;2023-01-13T14:08:49;13.00;96.80
11965;DHT22;6042;41.326;19.826;2023-01-13T14:11:25;13.00;96.80
11965;DHT22;6042;41.326;19.826;2023-01-13T14:14:01;12.90;96.70
11965;DHT22;6042;41.326;19.826;2023-01-13T14:16:31;12.90;96.90
11965;DHT22;6042;41.326;19.826;2023-01-13T14:19:03;12.80;97.10
11965;DHT22;6042;41.326;19.826;2023-01-13T14:21:32;12.90;97.00
11965;DHT22;6042;41.326;19.826;2023-01-13T14:24:02;12.90;96.60
11965;DHT22;6042;41.326;19.826;2023-01-13T14:26:36;12.90;96.40
11965;DHT22;6042;41.326;19.826;2023-01-13T14:29:06;12.70;96.70
11965;DHT22;6042;41.326;19.826;2023-01-13T14:31:35;12.70;97.20
11965;DHT22;6042;41.326;19.826;2023-01-13T14:34:08;12.70;97.00
11965;DHT22;6042;41.326;19.826;2023-01-13T14:36:58;12.70;97.50
11965;DHT22;6042;41.326;19.826;2023-01-13T14:39:35;12.50;98.20
11965;DHT22;6042;41.326;19.826;2023-01-13T14:42:11;12.40;98.60
11965;DHT22;6042;41.326;19.826;2023-01-13T14:44:44;12.40;98.90
11965;DHT22;6042;41.326;19.826;2023-01-13T14:47:19;12.40;99.20
11965;DHT22;6042;41.326;19.826;2023-01-13T14:50:03;12.20;99.60
11965;DHT22;6042;41.326;19.826;2023-01-13T14:52:35;12.30;99.60
11965;DHT22;6042;41.326;19.826;2023-01-13T14:55:28;12.30;99.70
11965;DHT22;6042;41.326;19.826;2023-01-13T14:58:16;12.20;99.90
11965;DHT22;6042;41.326;19.826;2023-01-13T15:00:44;12.20;99.90
11965;DHT22;6042;41.326;19.826;2023-01-13T15:03:14;12.20;99.90
11965;DHT22;6042;41.326;19.826;2023-01-13T15:05:47;12.00;99.90
11965;DHT22;6042;41.326;19.826;2023-01-13T15:08:35;11.90;99.90
11965;DHT22;6042;41.326;19.826;2023-01-13T15:11:06;11.90;99.90
11965;DHT22;6042;41.326;19.826;2023-01-13T15:13:43;11.90;99.90
11965;DHT22;6042;41.326;19.826;2023-01-13T15:16:21;11.90;99.90
11965;DHT22;6042;41.326;19.826;2023-01-13T15:18:51;11.90;99.90
11965;DHT22;6042;41.326;19.826;2023-01-13T15:21:22;11.90;99.90
11965;DHT22;6042;41.326;19.826;2023-01-13T15:23:51;11.80;99.90
11965;DHT22;6042;41.326;19.826;2023-01-13T15:26:22;11.80;99.90
11965;DHT22;6042;41.326;19.826;2023-01-13T15:28:52;11.90;99.90
11965;DHT22;6042;41.326;19.826;2023-01-13T15:31:22;11.90;99.90
11965;DHT22;6042;41.326;19.826;2023-01-13T15:33:51;11.80;99.90
11965;DHT22;6042;41.326;19.826;2023-01-13T15:36:24;11.80;99.90
11965;DHT22;6042;41.326;19.826;2023-01-13T15:38:54;11.70;99.90
11965;DHT22;6042;41.326;19.826;2023-01-13T15:41:22;11.70;99.90
11965;DHT22;6042;41.326;19.826;2023-01-13T15:44:10;11.60;99.90
11965;DHT22;6042;41.326;19.826;2023-01-13T15:47:11;11.50;99.90
11965;DHT22;6042;41.326;19.826;2023-01-13T15:49:42;11.40;99.90
11965;DHT22;6042;41.326;19.826;2023-01-13T15:52:18;11.20;99.90
11965;DHT22;6042;41.326;19.826;2023-01-13T15:54:47;11.00;99.90
11965;DHT22;6042;41.326;19.826;2023-01-13T15:57:21;10.90;99.90
11965;DHT22;6042;41.326;19.826;2023-01-13T15:59:53;10.80;99.90
11965;DHT22;6042;41.326;19.826;2023-01-13T16:02:22;10.70;99.90
11965;DHT22;6042;41.326;19.826;2023-01-13T16:04:51;10.50;99.90
11965;DHT22;6042;41.326;19.826;2023-01-13T16:07:23;10.40;99.90
11965;DHT22;6042;41.326;19.826;2023-01-13T16:09:52;10.30;99.90
11965;DHT22;6042;41.326;19.826;2023-01-13T16:12:21;10.20;99.90
11965;DHT22;6042;41.326;19.826;2023-01-13T16:14:49;10.20;99.90
11965;DHT22;6042;41.326;19.826;2023-01-13T16:17:21;10.20;99.90
11965;DHT22;6042;41.326;19.826;2023-01-13T16:19:51;10.10;99.90
11965;DHT22;6042;41.326;19.826;2023-01-13T16:22:21;10.10;99.90
11965;DHT22;6042;41.326;19.826;2023-01-13T16:24:51;10.00;99.90
11965;DHT22;6042;41.326;19.826;2023-01-13T16:27:21;10.00;99.90
11965;DHT22;6042;41.326;19.826;2023-01-13T16:29:51;10.00;99.90
11965;DHT22;6042;41.326;19.826;2023-01-13T16:32:19;10.00;99.90
11965;DHT22;6042;41.326;19.826;2023-01-13T16:34:48;10.00;99.90
11965;DHT22;6042;41.326;19.826;2023-01-13T16:37:23;9.90;99.90
11965;DHT22;6042;41.326;19.826;2023-01-13T16:39:53;9.70;99.90
11965;DHT22;6042;41.326;19.826;2023-01-13T16:42:22;9.60;99.90
11965;DHT22;6042;41.326;19.826;2023-01-13T16:44:50;9.50;99.90